Accueil
METAR-TAF:

METAR-TAF

Aéroports :

Tchita, Russie

latitude: 52-05N, longitude: 113-29E, altitude: 685 m

Observation

Le bulletin a été fait il y a 48 minutes, à 03:00 UTC
Vent 8 kt de est/nord-est
Température -10°C
Humidité 67%
Pression 1018 hPa
Visibilité: 9000 m
Nuages épars à une hauteur de 3300 ft, Cumulonimbus.
faibles averses de neige

METAR: UIAA 270300Z 07004MPS 9000 -SHSN SCT033CB M10/M15 Q1018 R29/410160 NOSIG RMK QFE705/0940

Heure: 12:48 (03:48 UTC)

Prévision

Le bulletin a été fait il y a 1 heure et 48 minutes, à 02:00 UTC
Prévision valable du 27 à 03 UTC au 28 à 03 UTC
Vent 12 kt de est/nord-est
Visibilité: 3100 m
Nuages fragmentés à une hauteur de 2000 ft, Cumulonimbus.
faibles averses de neige, Chasse-neige basse
Temporairement
du 27 à 03 UTC au 28 à 03 UTC
Vent 6 kt de nord
Visibilité: 2400 m
faibles averses de neige

TAF: UIAA 270200Z 2703/2803 07006MPS 3100 -SHSN DRSN BKN020CB TEMPO 2703/2803 36003MPS 2400 -SHSN

Observations et prévisions météorologiques de plus de 4000 aéroports (messages METAR et TAF).

Les stations disponibles sont représentées par des disques jaunes et rouges sur la carte.

Passer la souris dessus pour voir le nom de la station.

Cliquer dessus pour voir les observations et prévisions météorologiques.

Pour changer de carte: cliquez sur les boutons verts avec une croix noire pour zoomer, sur le bouton vert avec un tiret pour effectuer un zoom arrière, ou sur les flèches vertes pour les cartes adjacentes.


METAR-TAF: